Boothbay Harbor, Maine
Current Conditions -  °F | °C
As of 11:35 PM on Tuesday 21 Oct 2014 (Local Time) from KIWI Reporting Station
Light Rain Light Rain  
Wind Chill: 53°   Ceiling: 1000
Heat Index: 53°   Visibility: 8mi
Dew Point: 50°   Wind: 9mph
Humidity: 89%   Direction: 60°ENE
Pressure: 30.09"   Gusts: 17mph
Location:  43.85°N, 69.63°W
Report Text: KIWI 220335Z AUTO 06008G15KT 010V080 8SM -RA OVC010 12/10 A3009 RMK AO2 CIG 005V014 P0012 T01170100
Loading
Personal Weather Stations






























Interactive Weather Map
Tropical Storm Tracking
New forecast layout! Learn more

10-Day Weather Forecast

Advertisements
Track Severe Weather on mobile